首页
METAR-TAF:

METAR-TAF

机场 :

Monte Scuro, 意大利

纬度: 39-20N, 经度: 016-24E, 海拔: 1710米

当前天气观测

该预报发布于39分钟前的00:55 UTC
风速2节,风向西
温度 9°C
湿度 57%
气压 1016 hPa
能见度10公里或以上
1500米以下无云,无积雨云

METAR: LIBQ 250055Z 27002KT CAVOK 09/01 Q1016 RMK SKC MON LIB VAL NIL VIS MIN 9999

时间: 03:34 (01:34 UTC)


TAF: 丢失

超过4000个机场的气象观测和天气预报(METAR&TAF报告)。

可查询的气象台以黄色和红色小点在地图上表示。

将鼠标移到小点上方,可查看气象台名称。

然后点击查看天气观测和预报。

如需切换地图:点击带黑十字的绿色按钮放大地图;点击带横线的绿色按钮缩小地图;或者点击绿色箭头查看邻近地区的地图。


METAR-TAF: